createdAt,value
2016-09-15T06:01:52.852Z,205
2016-09-15T06:02:40.466Z,210
2016-09-15T06:03:38.535Z,210
2016-09-15T06:04:40.037Z,215
2016-09-15T06:05:38.900Z,220
2016-09-15T06:06:38.879Z,220
2016-09-15T06:07:38.638Z,225
2016-09-15T06:08:38.988Z,230
2016-09-15T06:09:39.111Z,230
2016-09-15T06:10:38.373Z,235
2016-09-15T06:11:38.359Z,235
2016-09-15T06:12:39.356Z,235
2016-09-15T06:13:39.287Z,240
2016-09-15T06:14:38.860Z,240
2016-09-15T06:15:40.514Z,250
2016-09-15T06:16:40.638Z,245
2016-09-15T06:17:37.936Z,250
2016-09-15T06:18:38.761Z,255
2016-09-15T06:19:39.967Z,255
2016-09-15T06:20:38.824Z,260
2016-09-15T06:21:38.670Z,260
2016-09-15T06:22:39.310Z,265
2016-09-15T06:23:39.838Z,265
2016-09-15T06:24:38.752Z,265
2016-09-15T06:25:40.476Z,270
2016-09-15T06:26:40.339Z,270
2016-09-15T06:27:39.278Z,275
2016-09-15T06:28:41.954Z,280
2016-09-15T06:29:39.253Z,280
2016-09-15T06:30:42.155Z,285
2016-09-15T06:31:39.081Z,285
2016-09-15T06:32:40.507Z,290
2016-09-15T06:33:39.545Z,290
2016-09-15T06:34:39.026Z,295
2016-09-15T06:35:39.217Z,295
2016-09-15T06:36:38.455Z,300
2016-09-15T06:37:40.106Z,305
2016-09-15T06:38:39.254Z,305
2016-09-15T06:39:40.125Z,310
2016-09-15T06:40:40.173Z,315
2016-09-15T06:41:40.524Z,320
2016-09-15T06:42:40.302Z,320
2016-09-15T06:43:40.333Z,325
2016-09-15T06:44:41.095Z,330
2016-09-15T06:45:40.964Z,330
2016-09-15T06:46:41.229Z,335
2016-09-15T06:47:41.073Z,345
2016-09-15T06:48:40.653Z,355
2016-09-15T06:49:40.437Z,360
2016-09-15T06:50:41.343Z,375
2016-09-15T06:51:40.982Z,430
2016-09-15T06:52:40.225Z,490
2016-09-15T06:53:41.017Z,545
2016-09-15T06:54:39.975Z,580
2016-09-15T06:55:40.833Z,645
2016-09-15T06:56:40.514Z,675
2016-09-15T06:57:39.567Z,695
2016-09-15T06:58:40.317Z,715
2016-09-15T06:59:40.363Z,735
2016-09-15T07:00:42.047Z,780
2016-09-15T07:01:40.161Z,810
2016-09-15T07:02:41.619Z,820
2016-09-15T07:03:41.221Z,780
2016-09-15T07:04:41.086Z,735
2016-09-15T07:05:39.367Z,715
2016-09-15T07:06:40.759Z,715
2016-09-15T07:07:40.144Z,715
2016-09-15T07:08:39.767Z,680
2016-09-15T07:09:39.966Z,660
2016-09-15T07:10:40.962Z,685
2016-09-15T07:11:40.098Z,705
2016-09-15T07:12:42.288Z,690
2016-09-15T07:13:41.824Z,680
2016-09-15T07:14:43.118Z,680
2016-09-15T07:15:39.540Z,720
2016-09-15T07:16:40.811Z,650
2016-09-15T07:17:40.368Z,550
2016-09-15T07:18:41.565Z,505
2016-09-15T07:19:41.764Z,480
2016-09-15T07:20:40.761Z,475
2016-09-15T07:21:41.316Z,465
2016-09-15T07:22:41.829Z,465
2016-09-15T07:23:42.252Z,460
2016-09-15T07:24:41.729Z,465
2016-09-15T07:25:40.667Z,465
2016-09-15T07:26:41.698Z,465
2016-09-15T07:27:42.065Z,470
2016-09-15T07:28:42.343Z,465
2016-09-15T07:29:40.065Z,465
2016-09-15T07:30:41.242Z,465
2016-09-15T07:31:40.648Z,460
2016-09-15T07:32:40.699Z,460
2016-09-15T07:33:40.527Z,465
2016-09-15T07:34:40.831Z,465
2016-09-15T07:35:41.349Z,465
2016-09-15T07:36:40.636Z,470
2016-09-15T07:37:41.761Z,470
2016-09-15T07:38:42.864Z,470
2016-09-15T07:39:42.383Z,475
2016-09-15T07:40:42.585Z,475
2016-09-15T07:41:40.866Z,480
2016-09-15T07:42:40.736Z,485
2016-09-15T07:43:42.682Z,485
2016-09-15T07:44:41.546Z,490
2016-09-15T07:45:41.334Z,495
2016-09-15T07:46:42.029Z,500
2016-09-15T07:47:41.231Z,510
2016-09-15T07:48:41.314Z,525
2016-09-15T07:49:40.887Z,550
2016-09-15T07:50:42.279Z,685
2016-09-15T07:51:41.912Z,775
2016-09-15T07:52:42.681Z,785
2016-09-15T07:53:44.327Z,815
2016-09-15T07:54:43.439Z,760
2016-09-15T07:55:43.429Z,635
2016-09-15T07:56:41.321Z,595
2016-09-15T07:57:41.838Z,560
2016-09-15T07:58:41.536Z,560
2016-09-15T07:59:42.091Z,560
2016-09-15T08:00:42.841Z,560
2016-09-15T08:01:42.009Z,565
2016-09-15T08:02:41.511Z,570
2016-09-15T08:03:41.292Z,590
2016-09-15T08:04:42.288Z,605
2016-09-15T08:05:42.776Z,675
2016-09-15T08:46:07.239Z,1460
2016-09-15T08:47:05.774Z,1440
2016-09-15T08:48:04.410Z,1460
2016-09-15T08:49:06.386Z,1475
2016-09-15T08:50:04.655Z,1450
2016-09-15T08:51:04.555Z,1505
2016-09-15T08:52:06.398Z,1545
2016-09-15T08:53:06.763Z,1575
2016-09-15T08:54:06.786Z,1615
2016-09-15T08:55:06.238Z,1590
2016-09-15T08:56:05.535Z,1575
2016-09-15T08:57:07.118Z,1605
2016-09-15T08:58:07.111Z,1615
2016-09-15T08:59:05.919Z,1675
2016-09-15T09:00:05.977Z,1610
2016-09-15T09:01:06.108Z,1530
2016-09-15T09:02:05.690Z,1525
2016-09-15T09:03:04.697Z,1535
2016-09-15T09:04:04.696Z,1595
2016-09-15T09:05:07.205Z,1600
2016-09-15T09:06:05.888Z,1665
2016-09-15T09:07:06.206Z,1600
2016-09-15T09:08:06.649Z,1640
2016-09-15T09:09:06.579Z,1690
2016-09-15T09:10:06.539Z,1675
2016-09-15T09:11:06.319Z,1520
2016-09-15T09:12:06.727Z,1500
2016-09-15T09:13:08.282Z,1530
2016-09-15T09:14:08.308Z,1530
2016-09-15T09:15:07.640Z,1580
2016-09-15T09:16:05.496Z,1715
2016-09-15T09:17:05.955Z,1685
2016-09-15T09:18:06.279Z,1620
2016-09-15T09:19:05.970Z,1590
2016-09-15T09:20:07.955Z,1615
2016-09-15T09:21:07.491Z,1695
2016-09-15T09:22:07.883Z,1645
2016-09-15T09:23:07.566Z,1630
2016-09-15T09:24:07.708Z,1615
2016-09-15T09:25:07.029Z,1620
2016-09-15T09:26:07.230Z,1650
2016-09-15T09:27:06.633Z,1675
2016-09-15T09:28:08.189Z,1660
2016-09-15T09:29:06.338Z,1685
2016-09-15T09:30:06.998Z,1615
2016-09-15T09:31:08.460Z,1555
2016-09-15T09:32:05.890Z,1525
2016-09-15T09:33:06.002Z,1470
2016-09-15T09:34:07.957Z,1490
2016-09-15T09:35:06.777Z,1595
2016-09-15T09:36:06.802Z,1730
2016-09-15T09:37:07.086Z,1735
2016-09-15T09:38:05.837Z,1725
2016-09-15T09:39:08.369Z,1760
2016-09-15T09:40:07.542Z,1770
2016-09-15T09:41:08.649Z,1655
2016-09-15T09:42:07.723Z,1640
2016-09-15T09:43:07.030Z,1620
2016-09-15T09:44:07.087Z,1575
2016-09-15T09:45:07.952Z,1645
2016-09-15T09:46:07.314Z,1675
2016-09-15T09:47:06.863Z,1645
2016-09-15T09:48:08.621Z,1705
2016-09-15T09:49:08.813Z,1700
2016-09-15T09:50:07.521Z,1680
2016-09-15T09:51:08.590Z,1675
2016-09-15T09:52:10.415Z,1680
2016-09-15T09:53:08.754Z,1705
2016-09-15T09:54:06.411Z,1650
2016-09-15T09:55:07.698Z,1600
2016-09-15T09:56:07.664Z,1540
2016-09-15T09:57:08.334Z,1460
2016-09-15T09:58:08.520Z,1575
2016-09-15T09:59:07.669Z,1640
2016-09-15T10:00:09.515Z,1605
2016-09-15T10:01:07.491Z,1650
2016-09-15T10:02:06.503Z,1605
2016-09-15T10:03:06.684Z,1530
2016-09-15T10:04:08.656Z,1580
2016-09-15T10:05:07.761Z,1520
2016-09-15T10:06:07.806Z,1460
2016-09-15T10:07:08.168Z,1495
2016-09-15T10:08:09.940Z,1470
2016-09-15T10:09:07.441Z,1410
2016-09-15T10:10:11.207Z,1295
2016-09-15T10:11:07.224Z,1320
2016-09-15T10:12:07.516Z,1295
2016-09-15T10:13:08.381Z,1240
2016-09-15T10:14:09.390Z,1210
2016-09-15T10:15:08.631Z,1160
2016-09-15T10:16:09.646Z,1130
2016-09-15T10:17:08.293Z,1105
2016-09-15T10:18:09.634Z,1045
2016-09-15T10:19:08.286Z,995
2016-09-15T10:20:08.958Z,945
2016-09-15T10:21:09.270Z,940
2016-09-15T10:22:08.596Z,920
2016-09-15T10:23:09.165Z,925
2016-09-15T10:24:07.672Z,925
2016-09-15T10:25:11.417Z,920
2016-09-15T10:26:09.255Z,910
2016-09-15T10:27:11.179Z,890
2016-09-15T10:28:07.158Z,860
2016-09-15T10:29:08.336Z,850
2016-09-15T10:30:10.415Z,835
2016-09-15T10:31:08.946Z,825
2016-09-15T10:32:08.501Z,815
2016-09-15T10:33:08.669Z,810
2016-09-15T10:34:09.236Z,820
2016-09-15T10:35:11.644Z,815
2016-09-15T10:36:10.555Z,810
2016-09-15T10:37:13.239Z,810
2016-09-15T10:38:09.869Z,810
2016-09-15T10:39:09.441Z,805
2016-09-15T10:40:10.322Z,810
2016-09-15T10:41:07.969Z,805
2016-09-15T10:42:09.594Z,810
2016-09-15T10:43:08.984Z,800
2016-09-15T10:44:10.857Z,795
2016-09-15T10:45:08.160Z,790
2016-09-15T10:46:10.590Z,790
2016-09-15T10:47:08.182Z,790
2016-09-15T10:48:11.549Z,790
2016-09-15T10:49:09.965Z,785
2016-09-15T10:50:11.125Z,795
2016-09-15T10:51:10.213Z,785
2016-09-15T10:52:08.957Z,785
2016-09-15T10:53:10.713Z,785
2016-09-15T10:54:11.405Z,785
2016-09-15T10:55:10.923Z,785
2016-09-15T10:56:10.982Z,780
2016-09-15T10:57:10.534Z,780
2016-09-15T10:58:10.022Z,780
2016-09-15T10:59:09.141Z,780
2016-09-15T11:00:09.626Z,775
2016-09-15T11:01:09.404Z,775
2016-09-15T11:02:09.392Z,780
2016-09-15T11:03:09.382Z,770
2016-09-15T11:04:08.744Z,770
2016-09-15T11:05:09.355Z,765
2016-09-15T11:06:09.226Z,765
2016-09-15T11:07:10.520Z,765
2016-09-15T11:08:10.605Z,760
2016-09-15T11:09:09.908Z,760
2016-09-15T11:10:13.040Z,765
2016-09-15T11:11:10.355Z,750
2016-09-15T11:12:09.533Z,750
2016-09-15T11:13:10.755Z,745
2016-09-15T11:14:09.743Z,735
2016-09-15T11:15:12.516Z,730
2016-09-15T11:16:09.847Z,725
2016-09-15T11:17:09.253Z,720
2016-09-15T11:18:10.172Z,720
2016-09-15T11:19:11.047Z,715
2016-09-15T11:20:10.188Z,710
2016-09-15T11:21:11.201Z,715
2016-09-15T11:22:08.177Z,705
2016-09-15T11:23:13.178Z,710
2016-09-15T11:24:09.554Z,710
2016-09-15T11:25:14.372Z,710
2016-09-15T11:26:13.086Z,715
2016-09-15T11:27:10.830Z,710
2016-09-15T11:28:09.393Z,715
2016-09-15T11:29:11.738Z,705
2016-09-15T11:30:10.468Z,705
2016-09-15T11:31:10.486Z,705
2016-09-15T11:32:09.468Z,705
2016-09-15T11:33:11.267Z,700
2016-09-15T11:34:10.659Z,700
2016-09-15T11:35:10.441Z,700
2016-09-15T11:36:10.181Z,700
2016-09-15T11:37:10.707Z,700
2016-09-15T11:38:13.026Z,705
2016-09-15T11:39:11.400Z,700
2016-09-15T11:40:11.167Z,695
2016-09-15T11:41:11.129Z,700
2016-09-15T11:42:14.123Z,700
2016-09-15T11:43:11.514Z,695
2016-09-15T11:44:09.843Z,695
2016-09-15T11:45:11.410Z,695
2016-09-15T11:46:11.720Z,690
2016-09-15T11:47:12.678Z,690
2016-09-15T11:48:11.938Z,695
2016-09-15T11:49:11.538Z,690
2016-09-15T11:50:13.197Z,690
2016-09-15T11:51:11.257Z,685
2016-09-15T11:52:11.127Z,685
2016-09-15T11:53:12.504Z,685
2016-09-15T11:54:11.019Z,685
2016-09-15T11:55:13.425Z,685
2016-09-15T11:56:11.799Z,685
2016-09-15T11:57:11.473Z,680
2016-09-15T11:58:11.824Z,680
2016-09-15T11:59:11.251Z,680
2016-09-15T12:00:12.492Z,680
2016-09-15T12:01:13.185Z,680
2016-09-15T12:02:12.114Z,680
2016-09-15T12:03:11.588Z,680
2016-09-15T12:04:11.955Z,675
2016-09-15T12:05:12.942Z,675
2016-09-15T12:06:11.914Z,675
2016-09-15T12:07:11.675Z,675
2016-09-15T12:08:12.294Z,670
2016-09-15T12:09:09.627Z,670
2016-09-15T12:10:11.243Z,670
2016-09-15T12:11:12.649Z,675
2016-09-15T12:12:15.769Z,675
2016-09-15T12:13:12.173Z,675
2016-09-15T12:14:14.036Z,680
2016-09-15T12:15:13.158Z,675
2016-09-15T12:16:12.782Z,675
2016-09-15T12:17:13.165Z,675
2016-09-15T12:18:11.006Z,680
2016-09-15T12:19:11.879Z,670
2016-09-15T12:20:14.295Z,670
2016-09-15T12:21:11.249Z,670
2016-09-15T12:22:12.727Z,670
2016-09-15T12:23:11.481Z,670
2016-09-15T12:24:12.738Z,670
2016-09-15T12:25:12.053Z,670
2016-09-15T12:26:12.050Z,670
2016-09-15T12:27:13.904Z,670
2016-09-15T12:28:12.024Z,670
2016-09-15T12:29:11.038Z,670
2016-09-15T12:30:12.174Z,670
2016-09-15T12:31:14.435Z,670
2016-09-15T12:32:13.474Z,665
2016-09-15T12:33:12.155Z,670
2016-09-15T12:34:12.180Z,670
2016-09-15T12:35:12.280Z,670
2016-09-15T12:36:13.969Z,670
2016-09-15T12:37:14.474Z,665
2016-09-15T12:38:11.382Z,665
2016-09-15T12:39:11.544Z,665
2016-09-15T12:40:10.968Z,660
2016-09-15T12:41:12.178Z,660
2016-09-15T12:42:14.684Z,660
2016-09-15T12:43:13.427Z,655
2016-09-15T12:44:11.688Z,655
2016-09-15T12:45:12.890Z,655
2016-09-15T12:46:13.951Z,655
2016-09-15T12:47:11.350Z,655
2016-09-15T12:48:14.193Z,660
2016-09-15T12:49:13.610Z,660
2016-09-15T12:50:13.845Z,655
2016-09-15T12:51:14.872Z,655
2016-09-15T12:52:12.810Z,650
2016-09-15T12:53:13.029Z,650
2016-09-15T12:54:14.366Z,650
2016-09-15T12:55:13.876Z,650
2016-09-15T12:56:13.781Z,645
2016-09-15T12:57:13.444Z,640
2016-09-15T12:58:13.382Z,645
2016-09-15T12:59:13.599Z,635
2016-09-15T13:00:13.964Z,640
2016-09-15T13:01:15.342Z,640
2016-09-15T13:02:14.212Z,625
2016-09-15T13:03:14.070Z,630
2016-09-15T13:04:14.029Z,630
2016-09-15T13:05:13.312Z,630
2016-09-15T13:06:14.722Z,625
2016-09-15T13:07:13.270Z,625
2016-09-15T13:08:15.988Z,625
2016-09-15T13:09:15.497Z,625
2016-09-15T13:10:15.595Z,620
2016-09-15T13:11:13.933Z,620
2016-09-15T13:12:13.608Z,620
2016-09-15T13:13:16.458Z,615
2016-09-15T13:14:14.314Z,615
2016-09-15T13:15:14.399Z,615
2016-09-15T13:16:14.141Z,615
2016-09-15T13:17:14.360Z,615
2016-09-15T13:18:16.147Z,610
2016-09-15T13:19:13.645Z,610
2016-09-15T13:20:14.190Z,615
2016-09-15T13:21:14.411Z,610
2016-09-15T13:22:14.533Z,605
2016-09-15T13:23:14.784Z,605
2016-09-15T13:24:15.294Z,610
2016-09-15T13:25:15.491Z,610
2016-09-15T13:26:14.614Z,610
2016-09-15T13:27:13.335Z,610
2016-09-15T13:28:14.621Z,610
2016-09-15T13:29:13.799Z,615
2016-09-15T13:30:14.045Z,610
2016-09-15T13:31:15.367Z,610
2016-09-15T13:32:15.873Z,610
2016-09-15T13:33:14.966Z,615
2016-09-15T13:34:14.613Z,610
2016-09-15T13:35:14.184Z,605
2016-09-15T13:36:13.698Z,605
2016-09-15T13:37:15.462Z,605
2016-09-15T13:38:14.336Z,605
2016-09-15T13:39:14.290Z,605
2016-09-15T13:40:15.777Z,600
2016-09-15T13:41:16.779Z,600
2016-09-15T13:42:15.490Z,595
2016-09-15T13:43:14.417Z,600
2016-09-15T13:44:15.254Z,595
2016-09-15T13:45:13.995Z,590
2016-09-15T13:46:14.840Z,590
2016-09-15T13:47:13.813Z,590
2016-09-15T13:48:15.512Z,590
2016-09-15T13:49:14.556Z,590
2016-09-15T13:50:15.805Z,590
2016-09-15T13:51:18.797Z,590
2016-09-15T13:52:14.894Z,585
2016-09-15T13:53:18.309Z,585
2016-09-15T13:54:15.889Z,585
2016-09-15T13:55:17.052Z,585
2016-09-15T13:56:15.212Z,585
2016-09-15T13:57:16.037Z,580
2016-09-15T13:58:14.651Z,580
2016-09-15T13:59:16.284Z,575
2016-09-15T14:00:16.231Z,575
2016-09-15T14:01:17.002Z,575
2016-09-15T14:02:16.172Z,575
2016-09-15T14:03:16.689Z,575
2016-09-15T14:04:15.061Z,570
2016-09-15T14:05:16.267Z,575
2016-09-15T14:06:15.458Z,575
2016-09-15T14:07:16.206Z,570
2016-09-15T14:08:16.024Z,570
2016-09-15T14:09:18.343Z,560
2016-09-15T14:10:17.886Z,560
2016-09-15T14:11:16.153Z,555
2016-09-15T14:12:14.950Z,555
2016-09-15T14:13:15.657Z,555
2016-09-15T14:14:16.450Z,555
2016-09-15T14:15:16.962Z,555
2016-09-15T14:16:16.675Z,555
2016-09-15T14:17:15.957Z,550
2016-09-15T14:18:15.828Z,550
2016-09-15T14:19:15.898Z,550
2016-09-15T14:20:15.866Z,540
2016-09-15T14:21:16.351Z,545
2016-09-15T14:22:14.908Z,545
2016-09-15T14:23:16.378Z,540
2016-09-15T14:24:18.605Z,535
2016-09-15T14:25:17.347Z,535
2016-09-15T14:26:16.522Z,535
2016-09-15T14:27:17.697Z,530
2016-09-15T14:28:17.809Z,530
2016-09-15T14:29:16.896Z,530
2016-09-15T14:30:16.777Z,525
2016-09-15T14:31:16.047Z,525
2016-09-15T14:32:17.180Z,525
2016-09-15T14:33:16.719Z,525
2016-09-15T14:34:17.538Z,520
2016-09-15T14:35:16.524Z,515
2016-09-15T14:36:17.098Z,515
2016-09-15T14:37:17.946Z,520
2016-09-15T14:38:18.388Z,515
2016-09-15T14:39:15.094Z,515
2016-09-15T14:40:17.407Z,510
2016-09-15T14:41:17.719Z,510
2016-09-15T14:42:17.653Z,505
2016-09-15T14:43:16.952Z,495
2016-09-15T14:44:17.885Z,495
2016-09-15T14:45:16.794Z,485
2016-09-15T14:46:16.652Z,480
2016-09-15T14:47:18.535Z,475
2016-09-15T14:48:16.748Z,470
2016-09-15T14:49:17.039Z,470
2016-09-15T14:50:17.689Z,470
2016-09-15T14:51:16.792Z,470
2016-09-15T14:52:19.149Z,465
2016-09-15T14:53:18.526Z,470
2016-09-15T14:54:17.262Z,460
2016-09-15T14:55:18.722Z,455
2016-09-15T14:56:16.778Z,450
2016-09-15T14:57:17.234Z,450
2016-09-15T14:58:18.745Z,445
2016-09-15T14:59:20.781Z,450
2016-09-15T15:00:16.198Z,445
2016-09-15T15:01:18.321Z,415
2016-09-15T15:02:17.973Z,360
2016-09-15T15:03:18.556Z,355
2016-09-15T15:04:18.600Z,335
2016-09-15T15:05:19.054Z,405
2016-09-15T15:06:16.978Z,400
2016-09-15T15:07:19.089Z,400
2016-09-15T15:08:18.741Z,400
2016-09-15T15:09:16.888Z,395
2016-09-15T15:10:17.563Z,395
2016-09-15T15:11:17.630Z,390
2016-09-15T15:12:19.199Z,390
2016-09-15T15:13:17.413Z,385
2016-09-15T15:14:18.834Z,380
2016-09-15T15:15:17.835Z,385
2016-09-15T15:16:18.306Z,380
2016-09-15T15:17:18.269Z,375
2016-09-15T15:18:19.556Z,365
2016-09-15T15:19:17.913Z,365
2016-09-15T15:20:18.832Z,365
2016-09-15T15:21:18.720Z,365
2016-09-15T15:22:19.272Z,370
2016-09-15T15:23:19.072Z,365
2016-09-15T15:24:20.688Z,375
2016-09-15T15:25:18.218Z,395
2016-09-15T15:26:19.242Z,390
2016-09-15T15:27:18.529Z,390
2016-09-15T15:28:19.501Z,390
2016-09-15T15:29:19.217Z,390
2016-09-15T15:30:17.682Z,385
2016-09-15T15:31:20.090Z,385
2016-09-15T15:32:18.768Z,385
2016-09-15T15:33:19.345Z,380
2016-09-15T15:34:18.529Z,385
2016-09-15T15:35:19.236Z,380
2016-09-15T15:36:18.134Z,380
2016-09-15T15:37:18.822Z,375
2016-09-15T15:38:19.202Z,375
2016-09-15T15:39:19.591Z,375
2016-09-15T15:40:20.131Z,370
2016-09-15T15:41:20.412Z,370
2016-09-15T15:42:19.283Z,370
2016-09-15T15:43:20.022Z,370
2016-09-15T15:44:19.424Z,370
2016-09-15T15:45:18.097Z,370
2016-09-15T15:46:19.811Z,370
2016-09-15T15:47:20.657Z,370
2016-09-15T15:48:20.456Z,370
2016-09-15T15:49:19.721Z,370
2016-09-15T15:50:22.188Z,370
2016-09-15T15:51:20.262Z,370
2016-09-15T15:52:21.450Z,370
2016-09-15T15:53:19.028Z,370
2016-09-15T15:54:20.061Z,370
2016-09-15T15:55:18.053Z,370
2016-09-15T15:56:20.418Z,365
2016-09-15T15:57:18.111Z,365
2016-09-15T15:58:20.493Z,365
2016-09-15T15:59:19.594Z,365
2016-09-15T16:00:18.568Z,360
2016-09-15T16:01:20.955Z,360
2016-09-15T16:02:20.119Z,355
2016-09-15T16:03:20.487Z,355
2016-09-15T16:04:19.927Z,350
2016-09-15T16:05:18.530Z,345
2016-09-15T16:06:20.478Z,340
2016-09-15T16:07:19.700Z,340
2016-09-15T16:08:21.328Z,335
2016-09-15T16:09:52.751Z,330
2016-09-15T16:10:51.178Z,325
2016-09-15T16:11:50.434Z,320
2016-09-15T16:12:49.970Z,315
2016-09-15T16:13:50.129Z,310
2016-09-15T16:14:50.391Z,305
2016-09-15T16:15:51.546Z,300
2016-09-15T16:16:50.326Z,300
2016-09-15T16:17:50.087Z,295
2016-09-15T16:18:51.375Z,290
2016-09-15T16:19:51.155Z,285
2016-09-15T16:20:50.694Z,280
2016-09-15T16:21:50.774Z,275
2016-09-15T16:22:50.125Z,270
2016-09-15T16:23:51.758Z,265
2016-09-15T16:24:50.780Z,260
2016-09-15T16:25:52.585Z,255
2016-09-15T16:26:51.325Z,250
2016-09-15T16:27:50.505Z,245
2016-09-15T16:28:50.633Z,245
2016-09-15T16:29:50.437Z,240
2016-09-15T16:30:50.547Z,235
2016-09-15T16:31:50.087Z,230
2016-09-15T16:32:53.486Z,225
2016-09-15T16:33:50.931Z,220
2016-09-15T16:34:50.118Z,220
2016-09-15T16:35:52.392Z,215
2016-09-15T16:36:49.928Z,210
2016-09-15T16:37:50.016Z,205
2016-09-15T16:38:52.566Z,200
2016-09-15T16:39:50.648Z,200
2016-09-15T16:40:51.738Z,200
2016-09-15T16:41:50.293Z,195
2016-09-15T16:42:50.591Z,195
2016-09-15T16:43:51.498Z,195
2016-09-15T16:44:51.448Z,190
2016-09-15T16:45:52.144Z,190
2016-09-15T16:46:51.691Z,185
2016-09-15T16:47:53.093Z,185
2016-09-15T16:48:52.597Z,180
2016-09-15T16:49:51.956Z,180
2016-09-15T16:50:53.231Z,175
2016-09-15T16:51:52.204Z,170
2016-09-15T16:52:51.388Z,165
2016-09-15T16:53:51.168Z,165
2016-09-15T16:54:52.638Z,160
2016-09-15T16:55:52.557Z,160
2016-09-15T16:56:53.016Z,155
2016-09-15T16:57:50.886Z,155
2016-09-15T16:58:52.015Z,150
2016-09-15T16:59:50.689Z,145
2016-09-15T17:00:51.486Z,140
2016-09-15T17:01:50.785Z,135
2016-09-15T17:02:50.624Z,130
2016-09-15T17:03:52.111Z,125
2016-09-15T17:04:53.051Z,125
2016-09-15T17:05:49.869Z,120
2016-09-15T17:06:52.079Z,115
2016-09-15T17:07:51.416Z,110
2016-09-15T17:08:53.355Z,105
2016-09-15T17:09:52.104Z,100
2016-09-15T17:10:50.631Z,100
2016-09-15T17:11:53.545Z,95
2016-09-15T17:12:53.367Z,90
2016-09-15T17:13:52.483Z,85
2016-09-15T17:14:52.654Z,80
2016-09-15T17:15:52.996Z,75
2016-09-15T17:16:52.090Z,70
2016-09-15T17:17:52.603Z,65
2016-09-15T17:18:52.469Z,60
2016-09-15T17:19:52.695Z,60
2016-09-15T17:20:53.276Z,55
2016-09-15T17:21:53.968Z,50
2016-09-15T17:22:51.484Z,50
2016-09-15T17:23:53.373Z,45
2016-09-15T17:24:55.047Z,40
2016-09-15T17:25:52.072Z,40
2016-09-15T17:26:52.154Z,35
2016-09-15T17:27:52.975Z,35
2016-09-15T17:28:53.153Z,30
2016-09-15T17:29:53.417Z,25
2016-09-15T17:30:53.381Z,25
2016-09-15T17:31:51.784Z,20
2016-09-15T17:32:52.537Z,20
2016-09-15T17:33:53.352Z,15
2016-09-15T17:34:52.954Z,15
2016-09-15T17:35:53.136Z,15
2016-09-15T17:36:53.632Z,15
2016-09-15T17:37:53.197Z,10
2016-09-15T17:38:58.505Z,10
2016-09-15T17:39:53.525Z,10
2016-09-15T17:40:52.708Z,10
2016-09-15T17:41:54.726Z,10
2016-09-15T17:42:53.531Z,10
2016-09-15T17:43:53.207Z,10
2016-09-15T17:44:56.045Z,10
2016-09-15T17:45:52.935Z,10
2016-09-15T17:46:53.011Z,5
2016-09-15T17:47:53.340Z,5
2016-09-15T17:48:53.736Z,5
2016-09-15T17:49:53.755Z,0
2016-09-15T17:50:52.087Z,0
2016-09-15T17:51:54.863Z,0
2016-09-15T17:52:52.965Z,0
2016-09-15T17:53:55.589Z,0
2016-09-15T17:54:53.639Z,0
2016-09-15T17:55:56.561Z,0
2016-09-15T17:56:54.632Z,0
2016-09-15T17:57:53.549Z,0
2016-09-15T17:58:55.859Z,0
2016-09-15T17:59:55.133Z,0
2016-09-15T18:00:55.154Z,0
2016-09-15T18:01:54.403Z,0
2016-09-15T18:02:52.433Z,0
2016-09-15T18:04:52.876Z,0
2016-09-15T18:05:54.379Z,0
2016-09-15T18:06:53.534Z,0
2016-09-15T18:07:56.084Z,0
2016-09-15T18:08:54.082Z,0
2016-09-15T18:09:54.500Z,0
2016-09-15T18:10:52.545Z,0
2016-09-15T18:11:53.391Z,0
2016-09-15T18:12:53.715Z,0
2016-09-15T18:13:53.288Z,0
2016-09-15T18:14:53.019Z,0
2016-09-15T18:15:53.488Z,0
2016-09-15T18:16:51.944Z,0
2016-09-15T18:17:52.732Z,0
2016-09-15T18:18:54.005Z,0
2016-09-15T18:19:53.061Z,0
2016-09-15T18:20:53.698Z,0
2016-09-15T18:21:54.469Z,0
2016-09-15T18:22:52.461Z,0
2016-09-15T18:23:53.733Z,0
2016-09-15T18:24:53.601Z,0
2016-09-15T18:25:54.152Z,0
2016-09-15T18:26:53.253Z,0
2016-09-15T18:27:50.731Z,0
2016-09-15T18:28:53.706Z,0
2016-09-15T18:29:53.510Z,0
2016-09-15T18:30:53.515Z,0
2016-09-15T18:31:55.852Z,0
2016-09-15T18:32:53.625Z,0
2016-09-15T18:33:52.567Z,0
2016-09-15T18:34:56.034Z,0
2016-09-15T18:35:53.539Z,0
2016-09-15T18:36:53.228Z,0
2016-09-15T18:37:55.305Z,0
2016-09-15T18:38:53.325Z,0
2016-09-15T18:39:54.225Z,0
2016-09-15T18:40:55.207Z,0
2016-09-15T18:41:55.974Z,0
2016-09-15T18:42:53.418Z,0
2016-09-15T18:43:54.403Z,0
2016-09-15T18:44:54.244Z,0
2016-09-15T18:45:54.120Z,0
2016-09-15T18:46:55.726Z,0
2016-09-15T18:47:54.226Z,0
2016-09-15T18:48:53.568Z,0
2016-09-15T18:49:54.500Z,0
2016-09-15T18:50:56.025Z,0
2016-09-15T18:51:55.459Z,0
2016-09-15T18:52:53.461Z,0
2016-09-15T18:53:54.961Z,0
2016-09-15T18:54:53.726Z,0
2016-09-15T18:55:54.024Z,0
2016-09-15T18:56:54.771Z,0
2016-09-15T18:57:55.650Z,0
2016-09-15T18:58:53.855Z,0
2016-09-15T18:59:54.991Z,0
2016-09-15T19:00:54.988Z,0
2016-09-15T19:01:56.187Z,0
2016-09-15T19:02:56.046Z,0
2016-09-15T19:03:54.600Z,0
2016-09-15T19:04:56.539Z,0
2016-09-15T19:05:54.752Z,0
2016-09-15T19:06:55.779Z,0
2016-09-15T19:07:54.860Z,0
2016-09-15T19:08:53.729Z,0
2016-09-15T19:09:56.259Z,0
2016-09-15T19:10:56.633Z,0
2016-09-15T19:11:52.871Z,0
2016-09-15T19:12:55.916Z,0
2016-09-15T19:13:57.012Z,0
2016-09-15T19:14:55.897Z,0
2016-09-15T19:15:54.711Z,0
2016-09-15T19:16:57.101Z,0
2016-09-15T19:17:57.094Z,0
2016-09-15T19:18:56.494Z,0
2016-09-15T19:19:54.619Z,0
2016-09-15T19:20:56.197Z,0
2016-09-15T19:21:55.607Z,0
2016-09-15T19:22:56.148Z,0
2016-09-15T19:23:55.598Z,0
2016-09-15T19:24:54.539Z,0
2016-09-15T19:25:54.617Z,0
2016-09-15T19:26:55.496Z,0
2016-09-15T19:27:54.979Z,0
2016-09-15T19:28:55.268Z,0
2016-09-15T19:29:56.889Z,0
2016-09-15T19:30:54.661Z,0
2016-09-15T19:31:55.477Z,0
2016-09-15T19:32:56.857Z,0
2016-09-15T19:33:56.386Z,0
2016-09-15T19:34:55.506Z,0
2016-09-15T19:35:56.950Z,0
2016-09-15T19:36:56.298Z,0
2016-09-15T19:37:56.476Z,0
2016-09-15T19:38:56.581Z,0
2016-09-15T19:39:54.761Z,0
2016-09-15T19:40:54.376Z,0
2016-09-15T19:41:56.332Z,0
2016-09-15T19:42:56.540Z,0
2016-09-15T19:43:55.620Z,0
2016-09-15T19:44:54.978Z,0
2016-09-15T19:45:57.080Z,0
2016-09-15T19:46:56.113Z,0
2016-09-15T19:47:54.437Z,0
2016-09-15T19:48:54.163Z,0
2016-09-15T19:49:54.044Z,0
2016-09-15T19:50:55.633Z,0
2016-09-15T19:51:56.301Z,0
2016-09-15T19:52:56.255Z,0
2016-09-15T19:53:57.417Z,0
2016-09-15T19:54:59.485Z,0
2016-09-15T19:55:57.611Z,0
2016-09-15T19:56:55.583Z,0
2016-09-15T19:57:57.038Z,0
2016-09-15T19:58:57.798Z,0
2016-09-15T19:59:56.621Z,0
2016-09-15T20:00:57.002Z,0
2016-09-15T20:01:55.439Z,0
2016-09-15T20:02:56.211Z,0
2016-09-15T20:03:55.448Z,0
2016-09-15T20:04:55.925Z,0
2016-09-15T20:05:55.320Z,0
2016-09-15T20:07:00.930Z,0
2016-09-15T20:07:56.091Z,0
2016-09-15T20:08:56.359Z,0
2016-09-15T20:09:57.198Z,0
2016-09-15T20:10:55.402Z,0
2016-09-15T20:11:59.716Z,0
2016-09-15T20:12:57.776Z,0
2016-09-15T20:13:57.568Z,0
2016-09-15T20:14:56.648Z,0
2016-09-15T20:15:58.128Z,0
2016-09-15T20:16:58.381Z,0
2016-09-15T20:17:57.331Z,0
2016-09-15T20:18:56.189Z,0
2016-09-15T20:19:56.788Z,0
2016-09-15T20:20:56.783Z,0
2016-09-15T20:21:56.511Z,0
2016-09-15T20:22:59.600Z,0
2016-09-15T20:23:56.521Z,0
2016-09-15T20:24:56.131Z,0
2016-09-15T20:25:57.936Z,0
2016-09-15T20:26:58.007Z,0
2016-09-15T20:27:57.548Z,0
2016-09-15T20:28:55.612Z,0
2016-09-15T20:29:56.530Z,0
2016-09-15T20:30:57.491Z,0
2016-09-15T20:31:56.991Z,0
2016-09-15T20:32:58.155Z,0
2016-09-15T20:33:55.869Z,0
2016-09-15T20:34:56.322Z,0
2016-09-15T20:35:56.535Z,0
2016-09-15T20:36:58.962Z,0
2016-09-15T20:37:57.008Z,0